sensor_id;sensor_type;location;lat;lon;timestamp;temperature;humidity
30381;DHT22;17169;50.966;11.038;2022-11-25T00:00:00;6.30;99.90
30381;DHT22;17169;50.966;11.038;2022-11-25T00:03:03;6.30;99.90
30381;DHT22;17169;50.966;11.038;2022-11-25T00:06:10;6.30;99.90
30381;DHT22;17169;50.966;11.038;2022-11-25T00:09:14;6.20;99.90
30381;DHT22;17169;50.966;11.038;2022-11-25T00:12:16;6.30;99.90
30381;DHT22;17169;50.966;11.038;2022-11-25T00:15:19;6.30;99.90
30381;DHT22;17169;50.966;11.038;2022-11-25T00:18:21;6.30;99.90
30381;DHT22;17169;50.966;11.038;2022-11-25T00:21:25;6.30;99.90
30381;DHT22;17169;50.966;11.038;2022-11-25T00:24:29;6.30;99.90
30381;DHT22;17169;50.966;11.038;2022-11-25T00:27:31;6.30;99.90
30381;DHT22;17169;50.966;11.038;2022-11-25T00:30:33;6.30;99.90
30381;DHT22;17169;50.966;11.038;2022-11-25T00:33:36;6.30;99.90
30381;DHT22;17169;50.966;11.038;2022-11-25T00:36:38;6.30;99.90
30381;DHT22;17169;50.966;11.038;2022-11-25T00:39:42;6.30;99.90
30381;DHT22;17169;50.966;11.038;2022-11-25T00:42:44;6.30;99.90
30381;DHT22;17169;50.966;11.038;2022-11-25T00:46:04;6.20;99.90
30381;DHT22;17169;50.966;11.038;2022-11-25T00:49:07;6.10;99.90
30381;DHT22;17169;50.966;11.038;2022-11-25T00:52:13;6.10;99.90
30381;DHT22;17169;50.966;11.038;2022-11-25T00:55:17;6.00;99.90
30381;DHT22;17169;50.966;11.038;2022-11-25T00:58:19;5.90;99.90
30381;DHT22;17169;50.966;11.038;2022-11-25T01:01:21;5.90;99.90
30381;DHT22;17169;50.966;11.038;2022-11-25T01:04:24;5.90;99.90
30381;DHT22;17169;50.966;11.038;2022-11-25T01:07:26;5.80;99.90
30381;DHT22;17169;50.966;11.038;2022-11-25T01:10:30;5.80;99.90
30381;DHT22;17169;50.966;11.038;2022-11-25T01:13:32;5.70;99.90
30381;DHT22;17169;50.966;11.038;2022-11-25T01:16:35;5.70;99.90
30381;DHT22;17169;50.966;11.038;2022-11-25T01:19:37;5.60;99.90
30381;DHT22;17169;50.966;11.038;2022-11-25T01:22:40;5.60;99.90
30381;DHT22;17169;50.966;11.038;2022-11-25T01:25:43;5.60;99.90
30381;DHT22;17169;50.966;11.038;2022-11-25T01:28:46;5.50;99.90
30381;DHT22;17169;50.966;11.038;2022-11-25T01:31:49;5.50;99.90
30381;DHT22;17169;50.966;11.038;2022-11-25T01:34:51;5.50;99.90
30381;DHT22;17169;50.966;11.038;2022-11-25T01:37:54;5.40;99.90
30381;DHT22;17169;50.966;11.038;2022-11-25T01:40:58;5.40;99.90
30381;DHT22;17169;50.966;11.038;2022-11-25T01:44:03;5.40;99.90
30381;DHT22;17169;50.966;11.038;2022-11-25T01:47:11;5.40;99.90
30381;DHT22;17169;50.966;11.038;2022-11-25T01:50:17;5.50;99.90
30381;DHT22;17169;50.966;11.038;2022-11-25T01:53:22;5.50;99.90
30381;DHT22;17169;50.966;11.038;2022-11-25T01:56:28;5.60;99.90
30381;DHT22;17169;50.966;11.038;2022-11-25T01:59:33;5.60;99.90
30381;DHT22;17169;50.966;11.038;2022-11-25T02:02:37;5.70;99.90
30381;DHT22;17169;50.966;11.038;2022-11-25T02:05:45;5.90;99.90
30381;DHT22;17169;50.966;11.038;2022-11-25T02:08:54;5.90;99.90
30381;DHT22;17169;50.966;11.038;2022-11-25T02:11:58;5.90;99.90
30381;DHT22;17169;50.966;11.038;2022-11-25T02:15:02;6.00;99.90
30381;DHT22;17169;50.966;11.038;2022-11-25T02:18:05;6.00;99.90
30381;DHT22;17169;50.966;11.038;2022-11-25T02:21:08;6.00;99.90
30381;DHT22;17169;50.966;11.038;2022-11-25T02:24:14;6.00;99.90
30381;DHT22;17169;50.966;11.038;2022-11-25T02:27:20;6.10;99.90
30381;DHT22;17169;50.966;11.038;2022-11-25T02:30:23;6.10;99.90
30381;DHT22;17169;50.966;11.038;2022-11-25T02:33:26;6.10;99.90
30381;DHT22;17169;50.966;11.038;2022-11-25T02:36:28;6.10;99.90
30381;DHT22;17169;50.966;11.038;2022-11-25T02:39:30;6.10;99.90
30381;DHT22;17169;50.966;11.038;2022-11-25T02:42:36;6.10;99.90
30381;DHT22;17169;50.966;11.038;2022-11-25T02:45:51;6.20;99.90
30381;DHT22;17169;50.966;11.038;2022-11-25T02:48:54;6.20;99.90
30381;DHT22;17169;50.966;11.038;2022-11-25T02:51:57;6.20;99.90
30381;DHT22;17169;50.966;11.038;2022-11-25T02:54:59;6.20;99.90
30381;DHT22;17169;50.966;11.038;2022-11-25T02:58:03;6.20;99.90
30381;DHT22;17169;50.966;11.038;2022-11-25T03:01:06;6.30;99.90
30381;DHT22;17169;50.966;11.038;2022-11-25T03:04:09;6.30;99.90
30381;DHT22;17169;50.966;11.038;2022-11-25T03:07:11;6.40;99.90
30381;DHT22;17169;50.966;11.038;2022-11-25T03:10:14;6.40;99.90
30381;DHT22;17169;50.966;11.038;2022-11-25T03:13:18;6.40;99.90
30381;DHT22;17169;50.966;11.038;2022-11-25T03:16:20;6.40;99.90
30381;DHT22;17169;50.966;11.038;2022-11-25T03:19:23;6.40;99.90
30381;DHT22;17169;50.966;11.038;2022-11-25T03:22:25;6.40;99.90
30381;DHT22;17169;50.966;11.038;2022-11-25T03:25:27;6.40;99.90
30381;DHT22;17169;50.966;11.038;2022-11-25T03:28:31;6.50;99.90
30381;DHT22;17169;50.966;11.038;2022-11-25T03:31:34;6.50;99.90
30381;DHT22;17169;50.966;11.038;2022-11-25T03:34:36;6.50;99.90
30381;DHT22;17169;50.966;11.038;2022-11-25T03:37:38;6.50;99.90
30381;DHT22;17169;50.966;11.038;2022-11-25T03:40:41;6.50;99.90
30381;DHT22;17169;50.966;11.038;2022-11-25T03:43:45;6.50;99.90
30381;DHT22;17169;50.966;11.038;2022-11-25T03:46:48;6.50;99.90
30381;DHT22;17169;50.966;11.038;2022-11-25T03:49:51;6.60;99.90
30381;DHT22;17169;50.966;11.038;2022-11-25T03:52:53;6.60;99.90
30381;DHT22;17169;50.966;11.038;2022-11-25T03:55:55;6.60;99.90
30381;DHT22;17169;50.966;11.038;2022-11-25T03:58:59;6.60;99.90
30381;DHT22;17169;50.966;11.038;2022-11-25T04:02:01;6.60;99.90
30381;DHT22;17169;50.966;11.038;2022-11-25T04:05:05;6.60;99.90
30381;DHT22;17169;50.966;11.038;2022-11-25T04:08:07;6.60;99.90
30381;DHT22;17169;50.966;11.038;2022-11-25T04:11:10;6.60;99.90
30381;DHT22;17169;50.966;11.038;2022-11-25T04:14:13;6.60;99.90
30381;DHT22;17169;50.966;11.038;2022-11-25T04:17:15;6.60;99.90
30381;DHT22;17169;50.966;11.038;2022-11-25T04:20:17;6.70;99.90
30381;DHT22;17169;50.966;11.038;2022-11-25T04:23:20;6.70;99.90
30381;DHT22;17169;50.966;11.038;2022-11-25T04:26:22;6.70;99.90
30381;DHT22;17169;50.966;11.038;2022-11-25T04:29:26;6.70;99.90
30381;DHT22;17169;50.966;11.038;2022-11-25T04:32:29;6.70;99.90
30381;DHT22;17169;50.966;11.038;2022-11-25T04:35:31;6.70;99.90
30381;DHT22;17169;50.966;11.038;2022-11-25T04:38:33;6.70;99.90
30381;DHT22;17169;50.966;11.038;2022-11-25T04:41:36;6.70;99.90
30381;DHT22;17169;50.966;11.038;2022-11-25T04:44:40;6.70;99.90
30381;DHT22;17169;50.966;11.038;2022-11-25T04:47:42;6.60;99.90
30381;DHT22;17169;50.966;11.038;2022-11-25T04:50:45;6.60;99.90
30381;DHT22;17169;50.966;11.038;2022-11-25T04:53:48;6.60;99.90
30381;DHT22;17169;50.966;11.038;2022-11-25T04:56:50;6.60;99.90
30381;DHT22;17169;50.966;11.038;2022-11-25T04:59:54;6.60;99.90
30381;DHT22;17169;50.966;11.038;2022-11-25T05:02:56;6.60;99.90
30381;DHT22;17169;50.966;11.038;2022-11-25T05:05:58;6.60;99.90
30381;DHT22;17169;50.966;11.038;2022-11-25T05:09:01;6.60;99.90
30381;DHT22;17169;50.966;11.038;2022-11-25T05:12:06;6.60;99.90
30381;DHT22;17169;50.966;11.038;2022-11-25T05:15:10;6.60;99.90
30381;DHT22;17169;50.966;11.038;2022-11-25T05:18:12;6.60;99.90
30381;DHT22;17169;50.966;11.038;2022-11-25T05:21:15;6.60;99.90
30381;DHT22;17169;50.966;11.038;2022-11-25T05:24:17;6.60;99.90
30381;DHT22;17169;50.966;11.038;2022-11-25T05:27:20;6.60;99.90
30381;DHT22;17169;50.966;11.038;2022-11-25T05:30:24;6.60;99.90
30381;DHT22;17169;50.966;11.038;2022-11-25T05:33:26;6.50;99.90
30381;DHT22;17169;50.966;11.038;2022-11-25T05:36:29;6.60;99.90
30381;DHT22;17169;50.966;11.038;2022-11-25T05:39:32;6.50;99.90
30381;DHT22;17169;50.966;11.038;2022-11-25T05:42:34;6.50;99.90
30381;DHT22;17169;50.966;11.038;2022-11-25T05:45:38;6.50;99.90
30381;DHT22;17169;50.966;11.038;2022-11-25T05:48:41;6.50;99.90
30381;DHT22;17169;50.966;11.038;2022-11-25T05:51:43;6.40;99.90
30381;DHT22;17169;50.966;11.038;2022-11-25T05:54:46;6.40;99.90
30381;DHT22;17169;50.966;11.038;2022-11-25T05:57:48;6.40;99.90
30381;DHT22;17169;50.966;11.038;2022-11-25T06:00:52;6.40;99.90
30381;DHT22;17169;50.966;11.038;2022-11-25T06:03:57;6.40;99.90
30381;DHT22;17169;50.966;11.038;2022-11-25T06:07:00;6.40;99.90
30381;DHT22;17169;50.966;11.038;2022-11-25T06:10:03;6.40;99.90
30381;DHT22;17169;50.966;11.038;2022-11-25T06:13:06;6.30;99.90
30381;DHT22;17169;50.966;11.038;2022-11-25T06:16:12;6.30;99.90
30381;DHT22;17169;50.966;11.038;2022-11-25T06:19:15;6.30;99.90
30381;DHT22;17169;50.966;11.038;2022-11-25T06:22:17;6.30;99.90
30381;DHT22;17169;50.966;11.038;2022-11-25T06:25:19;6.30;99.90
30381;DHT22;17169;50.966;11.038;2022-11-25T06:28:22;6.30;99.90
30381;DHT22;17169;50.966;11.038;2022-11-25T06:31:25;6.40;99.90
30381;DHT22;17169;50.966;11.038;2022-11-25T06:34:28;6.40;99.90
30381;DHT22;17169;50.966;11.038;2022-11-25T06:37:31;6.50;99.90
30381;DHT22;17169;50.966;11.038;2022-11-25T06:40:33;6.50;99.90
30381;DHT22;17169;50.966;11.038;2022-11-25T06:43:36;6.50;99.90
30381;DHT22;17169;50.966;11.038;2022-11-25T06:46:40;6.60;99.90
30381;DHT22;17169;50.966;11.038;2022-11-25T06:49:42;6.60;99.90
30381;DHT22;17169;50.966;11.038;2022-11-25T06:52:45;6.60;99.90
30381;DHT22;17169;50.966;11.038;2022-11-25T06:55:47;6.70;99.90
30381;DHT22;17169;50.966;11.038;2022-11-25T06:58:52;6.80;99.90
30381;DHT22;17169;50.966;11.038;2022-11-25T07:01:56;6.80;99.90
30381;DHT22;17169;50.966;11.038;2022-11-25T07:04:58;6.90;99.90
30381;DHT22;17169;50.966;11.038;2022-11-25T07:08:00;6.90;99.90
30381;DHT22;17169;50.966;11.038;2022-11-25T07:11:04;6.90;99.90
30381;DHT22;17169;50.966;11.038;2022-11-25T07:14:09;7.00;99.90
30381;DHT22;17169;50.966;11.038;2022-11-25T07:17:14;7.00;99.90
30381;DHT22;17169;50.966;11.038;2022-11-25T07:20:16;7.00;99.90
30381;DHT22;17169;50.966;11.038;2022-11-25T07:23:19;7.00;99.90
30381;DHT22;17169;50.966;11.038;2022-11-25T07:26:23;7.10;99.90
30381;DHT22;17169;50.966;11.038;2022-11-25T07:29:25;7.10;99.90
30381;DHT22;17169;50.966;11.038;2022-11-25T07:32:32;7.20;99.90
30381;DHT22;17169;50.966;11.038;2022-11-25T07:35:34;7.20;99.90
30381;DHT22;17169;50.966;11.038;2022-11-25T07:38:37;7.20;99.90
30381;DHT22;17169;50.966;11.038;2022-11-25T07:41:40;7.30;99.90
30381;DHT22;17169;50.966;11.038;2022-11-25T07:44:42;7.30;99.90
30381;DHT22;17169;50.966;11.038;2022-11-25T07:47:46;7.30;99.90
30381;DHT22;17169;50.966;11.038;2022-11-25T07:50:48;7.40;99.90
30381;DHT22;17169;50.966;11.038;2022-11-25T07:53:52;7.50;99.90
30381;DHT22;17169;50.966;11.038;2022-11-25T07:56:54;7.50;99.90
30381;DHT22;17169;50.966;11.038;2022-11-25T07:59:56;7.60;99.90
30381;DHT22;17169;50.966;11.038;2022-11-25T08:03:00;7.70;99.90
30381;DHT22;17169;50.966;11.038;2022-11-25T08:06:04;7.80;99.90
30381;DHT22;17169;50.966;11.038;2022-11-25T08:09:08;7.90;99.90
30381;DHT22;17169;50.966;11.038;2022-11-25T08:12:10;7.90;99.90
30381;DHT22;17169;50.966;11.038;2022-11-25T08:15:13;8.00;99.90
30381;DHT22;17169;50.966;11.038;2022-11-25T08:18:17;8.10;99.90
30381;DHT22;17169;50.966;11.038;2022-11-25T08:21:19;8.10;99.90
30381;DHT22;17169;50.966;11.038;2022-11-25T08:24:22;8.20;99.90
30381;DHT22;17169;50.966;11.038;2022-11-25T08:27:24;8.20;99.90
30381;DHT22;17169;50.966;11.038;2022-11-25T08:30:26;8.30;99.90
30381;DHT22;17169;50.966;11.038;2022-11-25T08:33:30;8.30;99.90
30381;DHT22;17169;50.966;11.038;2022-11-25T08:36:33;8.40;99.90
30381;DHT22;17169;50.966;11.038;2022-11-25T08:39:36;8.50;99.90
30381;DHT22;17169;50.966;11.038;2022-11-25T08:42:38;8.60;99.90
30381;DHT22;17169;50.966;11.038;2022-11-25T08:45:40;8.70;99.90
30381;DHT22;17169;50.966;11.038;2022-11-25T08:48:44;8.70;99.90
30381;DHT22;17169;50.966;11.038;2022-11-25T08:51:47;8.80;99.90
30381;DHT22;17169;50.966;11.038;2022-11-25T08:54:49;8.80;99.90
30381;DHT22;17169;50.966;11.038;2022-11-25T08:57:52;8.90;99.90
30381;DHT22;17169;50.966;11.038;2022-11-25T09:00:54;9.00;99.90
30381;DHT22;17169;50.966;11.038;2022-11-25T09:03:58;9.20;99.90
30381;DHT22;17169;50.966;11.038;2022-11-25T09:07:03;9.30;99.90
30381;DHT22;17169;50.966;11.038;2022-11-25T09:10:11;9.30;99.90
30381;DHT22;17169;50.966;11.038;2022-11-25T09:13:14;9.60;99.90
30381;DHT22;17169;50.966;11.038;2022-11-25T09:16:16;9.70;99.90
30381;DHT22;17169;50.966;11.038;2022-11-25T09:19:20;9.70;99.90
30381;DHT22;17169;50.966;11.038;2022-11-25T09:22:22;9.80;99.90
30381;DHT22;17169;50.966;11.038;2022-11-25T09:25:25;9.90;99.90
30381;DHT22;17169;50.966;11.038;2022-11-25T09:28:27;9.90;99.90
30381;DHT22;17169;50.966;11.038;2022-11-25T09:31:30;10.00;99.90
30381;DHT22;17169;50.966;11.038;2022-11-25T09:34:34;10.10;99.90
30381;DHT22;17169;50.966;11.038;2022-11-25T09:37:36;10.20;99.90
30381;DHT22;17169;50.966;11.038;2022-11-25T09:40:42;10.20;99.90
30381;DHT22;17169;50.966;11.038;2022-11-25T09:43:54;10.20;99.90
30381;DHT22;17169;50.966;11.038;2022-11-25T09:47:25;10.30;99.90
30381;DHT22;17169;50.966;11.038;2022-11-25T09:50:39;10.30;99.90
30381;DHT22;17169;50.966;11.038;2022-11-25T09:53:50;10.30;99.90
30381;DHT22;17169;50.966;11.038;2022-11-25T09:57:00;10.30;99.90
30381;DHT22;17169;50.966;11.038;2022-11-25T10:00:06;10.30;99.90
30381;DHT22;17169;50.966;11.038;2022-11-25T10:03:19;10.40;99.90
30381;DHT22;17169;50.966;11.038;2022-11-25T10:06:26;10.40;99.90
30381;DHT22;17169;50.966;11.038;2022-11-25T10:09:33;10.40;99.90
30381;DHT22;17169;50.966;11.038;2022-11-25T10:12:37;10.50;99.90
30381;DHT22;17169;50.966;11.038;2022-11-25T10:15:44;10.50;99.90
30381;DHT22;17169;50.966;11.038;2022-11-25T10:18:55;10.50;99.90
30381;DHT22;17169;50.966;11.038;2022-11-25T10:22:13;10.50;99.90
30381;DHT22;17169;50.966;11.038;2022-11-25T10:25:21;10.50;99.90
30381;DHT22;17169;50.966;11.038;2022-11-25T10:28:28;10.50;99.90
30381;DHT22;17169;50.966;11.038;2022-11-25T10:31:34;10.50;99.90
30381;DHT22;17169;50.966;11.038;2022-11-25T10:34:40;10.60;99.90
30381;DHT22;17169;50.966;11.038;2022-11-25T10:37:46;10.70;99.90
30381;DHT22;17169;50.966;11.038;2022-11-25T10:40:55;10.70;99.90
30381;DHT22;17169;50.966;11.038;2022-11-25T10:43:57;10.80;99.90
30381;DHT22;17169;50.966;11.038;2022-11-25T10:47:17;10.90;99.90
30381;DHT22;17169;50.966;11.038;2022-11-25T10:50:31;10.80;99.90
30381;DHT22;17169;50.966;11.038;2022-11-25T10:53:37;10.90;99.90
30381;DHT22;17169;50.966;11.038;2022-11-25T10:56:49;10.90;99.90
30381;DHT22;17169;50.966;11.038;2022-11-25T10:59:55;11.00;99.90
30381;DHT22;17169;50.966;11.038;2022-11-25T11:03:00;11.00;99.90
30381;DHT22;17169;50.966;11.038;2022-11-25T11:06:30;11.00;99.90
30381;DHT22;17169;50.966;11.038;2022-11-25T11:09:36;11.00;99.90
30381;DHT22;17169;50.966;11.038;2022-11-25T11:12:49;11.00;99.90
30381;DHT22;17169;50.966;11.038;2022-11-25T11:15:53;11.10;99.90
30381;DHT22;17169;50.966;11.038;2022-11-25T11:18:55;11.10;99.90
30381;DHT22;17169;50.966;11.038;2022-11-25T11:22:15;11.20;99.90
30381;DHT22;17169;50.966;11.038;2022-11-25T11:25:30;11.20;99.90
30381;DHT22;17169;50.966;11.038;2022-11-25T11:28:38;11.30;99.90
30381;DHT22;17169;50.966;11.038;2022-11-25T11:31:44;11.30;99.90
30381;DHT22;17169;50.966;11.038;2022-11-25T11:34:56;11.40;99.90
30381;DHT22;17169;50.966;11.038;2022-11-25T11:38:07;11.40;99.90
30381;DHT22;17169;50.966;11.038;2022-11-25T11:41:20;11.40;99.90
30381;DHT22;17169;50.966;11.038;2022-11-25T11:44:33;11.50;99.90
30381;DHT22;17169;50.966;11.038;2022-11-25T11:47:48;11.50;99.90
30381;DHT22;17169;50.966;11.038;2022-11-25T11:51:00;11.50;99.90
30381;DHT22;17169;50.966;11.038;2022-11-25T11:54:07;11.40;99.90
30381;DHT22;17169;50.966;11.038;2022-11-25T11:57:23;11.40;99.90
30381;DHT22;17169;50.966;11.038;2022-11-25T12:00:31;11.40;99.90
30381;DHT22;17169;50.966;11.038;2022-11-25T12:03:39;11.40;99.90
30381;DHT22;17169;50.966;11.038;2022-11-25T12:06:59;11.30;99.90
30381;DHT22;17169;50.966;11.038;2022-11-25T12:10:09;11.30;99.90
30381;DHT22;17169;50.966;11.038;2022-11-25T12:13:21;11.30;99.90
30381;DHT22;17169;50.966;11.038;2022-11-25T12:16:32;11.30;99.90
30381;DHT22;17169;50.966;11.038;2022-11-25T12:19:40;11.30;99.90
30381;DHT22;17169;50.966;11.038;2022-11-25T12:22:49;11.20;99.90
30381;DHT22;17169;50.966;11.038;2022-11-25T12:26:01;11.10;99.90
30381;DHT22;17169;50.966;11.038;2022-11-25T12:29:09;11.00;99.90
30381;DHT22;17169;50.966;11.038;2022-11-25T12:32:40;11.00;99.90
30381;DHT22;17169;50.966;11.038;2022-11-25T12:35:50;10.90;99.90
30381;DHT22;17169;50.966;11.038;2022-11-25T12:38:59;10.80;99.90
30381;DHT22;17169;50.966;11.038;2022-11-25T12:42:03;10.80;99.90
30381;DHT22;17169;50.966;11.038;2022-11-25T12:45:10;10.70;99.90
30381;DHT22;17169;50.966;11.038;2022-11-25T12:48:16;10.60;99.90
30381;DHT22;17169;50.966;11.038;2022-11-25T12:51:40;10.60;99.90
30381;DHT22;17169;50.966;11.038;2022-11-25T12:58:34;10.60;99.90
30381;DHT22;17169;50.966;11.038;2022-11-25T13:01:53;10.60;99.90
30381;DHT22;17169;50.966;11.038;2022-11-25T13:05:17;10.60;99.90
30381;DHT22;17169;50.966;11.038;2022-11-25T13:08:35;10.60;99.90
30381;DHT22;17169;50.966;11.038;2022-11-25T13:11:58;10.50;99.90
30381;DHT22;17169;50.966;11.038;2022-11-25T13:15:23;10.40;99.90
30381;DHT22;17169;50.966;11.038;2022-11-25T13:18:30;10.40;99.90
30381;DHT22;17169;50.966;11.038;2022-11-25T13:21:33;10.30;99.90
30381;DHT22;17169;50.966;11.038;2022-11-25T13:24:38;10.20;99.90
30381;DHT22;17169;50.966;11.038;2022-11-25T13:27:56;10.10;99.90
30381;DHT22;17169;50.966;11.038;2022-11-25T13:31:19;10.00;99.90
30381;DHT22;17169;50.966;11.038;2022-11-25T13:34:27;10.00;99.90
30381;DHT22;17169;50.966;11.038;2022-11-25T13:37:37;9.90;99.90
30381;DHT22;17169;50.966;11.038;2022-11-25T13:40:40;9.90;99.90
30381;DHT22;17169;50.966;11.038;2022-11-25T13:43:53;9.90;99.90
30381;DHT22;17169;50.966;11.038;2022-11-25T13:46:57;9.90;99.90
30381;DHT22;17169;50.966;11.038;2022-11-25T13:50:03;9.80;99.90
30381;DHT22;17169;50.966;11.038;2022-11-25T13:53:17;9.90;99.90
30381;DHT22;17169;50.966;11.038;2022-11-25T13:56:27;9.90;99.90
30381;DHT22;17169;50.966;11.038;2022-11-25T13:59:36;9.80;99.90
30381;DHT22;17169;50.966;11.038;2022-11-25T14:02:42;9.80;99.90
30381;DHT22;17169;50.966;11.038;2022-11-25T14:05:57;9.70;99.90
30381;DHT22;17169;50.966;11.038;2022-11-25T14:09:03;9.60;99.90
30381;DHT22;17169;50.966;11.038;2022-11-25T14:12:21;9.60;99.90
30381;DHT22;17169;50.966;11.038;2022-11-25T14:15:42;9.60;99.90
30381;DHT22;17169;50.966;11.038;2022-11-25T14:18:56;9.60;99.90
30381;DHT22;17169;50.966;11.038;2022-11-25T14:22:17;9.50;99.90
30381;DHT22;17169;50.966;11.038;2022-11-25T14:25:23;9.50;99.90
30381;DHT22;17169;50.966;11.038;2022-11-25T14:28:32;9.50;99.90
30381;DHT22;17169;50.966;11.038;2022-11-25T14:31:39;9.40;99.90
30381;DHT22;17169;50.966;11.038;2022-11-25T14:34:46;9.40;99.90
30381;DHT22;17169;50.966;11.038;2022-11-25T14:37:53;9.30;99.90
30381;DHT22;17169;50.966;11.038;2022-11-25T14:41:02;9.30;99.90
30381;DHT22;17169;50.966;11.038;2022-11-25T14:44:11;9.20;99.90
30381;DHT22;17169;50.966;11.038;2022-11-25T14:47:20;9.20;99.90
30381;DHT22;17169;50.966;11.038;2022-11-25T14:50:24;9.10;99.90
30381;DHT22;17169;50.966;11.038;2022-11-25T14:53:28;9.10;99.90
30381;DHT22;17169;50.966;11.038;2022-11-25T14:56:33;9.10;99.90
30381;DHT22;17169;50.966;11.038;2022-11-25T14:59:37;9.10;99.90
30381;DHT22;17169;50.966;11.038;2022-11-25T15:02:41;9.10;99.90
30381;DHT22;17169;50.966;11.038;2022-11-25T15:05:53;9.10;99.90
30381;DHT22;17169;50.966;11.038;2022-11-25T15:08:59;9.10;99.90
30381;DHT22;17169;50.966;11.038;2022-11-25T15:12:04;9.00;99.90
30381;DHT22;17169;50.966;11.038;2022-11-25T15:15:13;9.00;99.90
30381;DHT22;17169;50.966;11.038;2022-11-25T15:18:19;9.00;99.90
30381;DHT22;17169;50.966;11.038;2022-11-25T15:21:26;9.00;99.90
30381;DHT22;17169;50.966;11.038;2022-11-25T15:24:32;9.00;99.90
30381;DHT22;17169;50.966;11.038;2022-11-25T15:27:43;9.00;99.90
30381;DHT22;17169;50.966;11.038;2022-11-25T15:30:55;8.90;99.90
30381;DHT22;17169;50.966;11.038;2022-11-25T15:34:01;9.00;99.90
30381;DHT22;17169;50.966;11.038;2022-11-25T15:37:03;8.90;99.90
30381;DHT22;17169;50.966;11.038;2022-11-25T15:40:29;8.90;99.90
30381;DHT22;17169;50.966;11.038;2022-11-25T15:43:35;8.80;99.90
30381;DHT22;17169;50.966;11.038;2022-11-25T15:46:39;8.80;99.90
30381;DHT22;17169;50.966;11.038;2022-11-25T15:49:47;8.70;99.90
30381;DHT22;17169;50.966;11.038;2022-11-25T15:52:52;8.60;99.90
30381;DHT22;17169;50.966;11.038;2022-11-25T15:55:59;8.70;99.90
30381;DHT22;17169;50.966;11.038;2022-11-25T15:59:02;8.60;99.90
30381;DHT22;17169;50.966;11.038;2022-11-25T16:02:27;8.50;99.90
30381;DHT22;17169;50.966;11.038;2022-11-25T16:05:33;8.50;99.90
30381;DHT22;17169;50.966;11.038;2022-11-25T16:08:36;8.50;99.90
30381;DHT22;17169;50.966;11.038;2022-11-25T16:11:44;8.40;99.90
30381;DHT22;17169;50.966;11.038;2022-11-25T16:14:47;8.40;99.90
30381;DHT22;17169;50.966;11.038;2022-11-25T16:17:51;8.40;99.90
30381;DHT22;17169;50.966;11.038;2022-11-25T16:20:58;8.40;99.90
30381;DHT22;17169;50.966;11.038;2022-11-25T16:24:12;8.40;99.90
30381;DHT22;17169;50.966;11.038;2022-11-25T16:27:22;8.50;99.90
30381;DHT22;17169;50.966;11.038;2022-11-25T16:30:24;8.50;99.90
30381;DHT22;17169;50.966;11.038;2022-11-25T16:33:28;8.50;99.90
30381;DHT22;17169;50.966;11.038;2022-11-25T16:36:30;8.60;99.90
30381;DHT22;17169;50.966;11.038;2022-11-25T16:39:33;8.60;99.90
30381;DHT22;17169;50.966;11.038;2022-11-25T16:42:37;8.60;99.90
30381;DHT22;17169;50.966;11.038;2022-11-25T16:45:39;8.50;99.90
30381;DHT22;17169;50.966;11.038;2022-11-25T16:48:42;8.50;99.90
30381;DHT22;17169;50.966;11.038;2022-11-25T16:51:44;8.50;99.90
30381;DHT22;17169;50.966;11.038;2022-11-25T16:54:47;8.50;99.90
30381;DHT22;17169;50.966;11.038;2022-11-25T16:57:51;8.50;99.90
30381;DHT22;17169;50.966;11.038;2022-11-25T17:00:55;8.40;99.90
30381;DHT22;17169;50.966;11.038;2022-11-25T17:03:57;8.40;99.90
30381;DHT22;17169;50.966;11.038;2022-11-25T17:07:00;8.40;99.90
30381;DHT22;17169;50.966;11.038;2022-11-25T17:10:03;8.40;99.90
30381;DHT22;17169;50.966;11.038;2022-11-25T17:13:06;8.40;99.90
30381;DHT22;17169;50.966;11.038;2022-11-25T17:16:17;8.40;99.90
30381;DHT22;17169;50.966;11.038;2022-11-25T17:19:19;8.40;99.90
30381;DHT22;17169;50.966;11.038;2022-11-25T17:22:23;8.40;99.90
30381;DHT22;17169;50.966;11.038;2022-11-25T17:25:26;8.40;99.90
30381;DHT22;17169;50.966;11.038;2022-11-25T17:28:30;8.40;99.90
30381;DHT22;17169;50.966;11.038;2022-11-25T17:31:33;8.50;99.90
30381;DHT22;17169;50.966;11.038;2022-11-25T17:34:36;8.60;99.90
30381;DHT22;17169;50.966;11.038;2022-11-25T17:37:39;8.50;99.90
30381;DHT22;17169;50.966;11.038;2022-11-25T17:40:42;8.50;99.90
30381;DHT22;17169;50.966;11.038;2022-11-25T17:43:48;8.60;99.90
30381;DHT22;17169;50.966;11.038;2022-11-25T17:46:52;8.60;99.90
30381;DHT22;17169;50.966;11.038;2022-11-25T17:49:54;8.60;99.90
30381;DHT22;17169;50.966;11.038;2022-11-25T17:52:57;8.50;99.90
30381;DHT22;17169;50.966;11.038;2022-11-25T17:56:00;8.50;99.90
30381;DHT22;17169;50.966;11.038;2022-11-25T17:59:09;8.50;99.90
30381;DHT22;17169;50.966;11.038;2022-11-25T18:02:16;8.50;99.90
30381;DHT22;17169;50.966;11.038;2022-11-25T18:05:21;8.50;99.90
30381;DHT22;17169;50.966;11.038;2022-11-25T18:08:23;8.50;99.90
30381;DHT22;17169;50.966;11.038;2022-11-25T18:11:26;8.40;99.90
30381;DHT22;17169;50.966;11.038;2022-11-25T18:14:32;8.40;99.90
30381;DHT22;17169;50.966;11.038;2022-11-25T18:17:36;8.30;99.90
30381;DHT22;17169;50.966;11.038;2022-11-25T18:20:39;8.30;99.90
30381;DHT22;17169;50.966;11.038;2022-11-25T18:23:41;8.30;99.90
30381;DHT22;17169;50.966;11.038;2022-11-25T18:26:46;8.30;99.90
30381;DHT22;17169;50.966;11.038;2022-11-25T18:29:51;8.40;99.90
30381;DHT22;17169;50.966;11.038;2022-11-25T18:32:54;8.40;99.90
30381;DHT22;17169;50.966;11.038;2022-11-25T18:35:57;8.40;99.90
30381;DHT22;17169;50.966;11.038;2022-11-25T18:38:59;8.40;99.90
30381;DHT22;17169;50.966;11.038;2022-11-25T18:42:04;8.40;99.90
30381;DHT22;17169;50.966;11.038;2022-11-25T18:45:14;8.30;99.90
30381;DHT22;17169;50.966;11.038;2022-11-25T18:48:18;8.20;99.90
30381;DHT22;17169;50.966;11.038;2022-11-25T18:51:20;8.10;99.90
30381;DHT22;17169;50.966;11.038;2022-11-25T18:54:23;8.00;99.90
30381;DHT22;17169;50.966;11.038;2022-11-25T18:57:25;7.90;99.90
30381;DHT22;17169;50.966;11.038;2022-11-25T19:00:29;7.90;99.90
30381;DHT22;17169;50.966;11.038;2022-11-25T19:03:31;7.80;99.90
30381;DHT22;17169;50.966;11.038;2022-11-25T19:06:34;7.70;99.90
30381;DHT22;17169;50.966;11.038;2022-11-25T19:09:36;7.70;99.90
30381;DHT22;17169;50.966;11.038;2022-11-25T19:12:39;7.70;99.90
30381;DHT22;17169;50.966;11.038;2022-11-25T19:15:45;7.70;99.90
30381;DHT22;17169;50.966;11.038;2022-11-25T19:18:48;7.70;99.90
30381;DHT22;17169;50.966;11.038;2022-11-25T19:21:50;7.70;99.90
30381;DHT22;17169;50.966;11.038;2022-11-25T19:24:53;7.60;99.90
30381;DHT22;17169;50.966;11.038;2022-11-25T19:27:57;7.60;99.90
30381;DHT22;17169;50.966;11.038;2022-11-25T19:31:02;7.60;99.90